Rock Creek, MN (55067)

8:26 AM CST on February 13, 2016 (GMT -0600)
Torgs on Belle Isle | | Change Station
CLOSE
Current Station
Personal Weather Station
Location: Rush City, MN
Elevation: 932 ft
Nearby Weather Stations
Active Advisory: Wind Chill Advisory

Elev 932 ft 45.70 °N, 93.06 °W | Updated 54 seconds ago

Partly Cloudy
Partly Cloudy
-8.0 °F
Feels Like -8 °F
N
0.0
Wind Variable Wind from NW
Gusts 1.0 mph

Today
High -- | Low -- °F
--% Chance of Precip.
Yesterday
High -- | Low -- °F
Precip. -- in
Pressure 30.62 in
Visibility 10.0 miles
Clouds Clear
Windchill -8 °F
Dew Point -13 °F
Humidity 78%
Rainfall 0.00 in
Snow Depth Not available.
7:17 AM 5:34 PM
Waxing Crescent, 31% visible
METAR KJMR 131418Z AUTO 00000KT 10SM CLR M22/M26 A3062 RMK AO2
Pressure 30.62 in
Visibility 10.0 miles
Clouds Clear
Windchill -8 °F
Dew Point -13 °F
Humidity 78%
Rainfall 0.00 in
Snow Depth Not available.
7:17 AM 5:34 PM
Waxing Crescent, 31% visible
METAR KJMR 131418Z AUTO 00000KT 10SM CLR M22/M26 A3062 RMK AO2

10-Day Weather Forecast

Almanac

Astronomy

Feb. 13, 2016 Rise Set
Actual Time
Civil Twilight
Nautical Twilight
Astronomical Twilight
Moon
Length of Visible Light
Length of Day
Tomorrow will be .
, % of the Moon is Illuminated

Today's Extremes

State Highs State Lows

Community

WunderPhotos

Upload Photos

1,892,558 photos uploaded!

WunderBlog® & News

Nearby

Air Quality

  Air Quality AQ Index Pollutant
Not available.

Snow Depth

Station Depth Elevation

Earthquake Activity

City Distance Mag. Time & Date
Minimum magnitude displayed is 2.5.

Coastal Water Temperatures

Place Temperature

Stations

Nearby Weather Stations

Station Location Temp. Windchill Dew Point Humidity Wind Precip. Elev Updated Type
                   

Watches & Warnings

Wind Chill Advisory
Issued: 3:39 AM CST Feb. 13, 2016 – National Weather Service

... Wind Chill Advisory remains in effect until 9 am CST this
morning...

* wind chill values... expect wind chills to range from 20 below
zero to 35 below zero through this morning.

* Impacts... the cold wind chills can cause frostbite on exposed
skin in as little 30 minutes.

Precautionary/preparedness actions...

A Wind Chill Advisory means that cold air and the wind will
combine to create low wind chills. Frost bite and hypothermia can
occur if precautions are not taken. Make sure you wear a hat and
gloves.


Jjm